Time;durP1;ratioP1;P1;durP2;ratioP2;P2;SDS_P1;SDS_P2;PMS_P1;PMS_P2;Temp;Humidity;BMP_temperature;BMP_pressure;BME280_temperature;BME280_humidity;BME280_pressure;Samples;Min_cycle;Max_cycle;Signal;HPM_P1;HPM_P2
2020/12/02 00:00:40;;;;;;;3.73;3.33;;;21.10;53.20;;;;;;5073647;28;20692;-68
2020/12/02 00:03:25;;;;;;;3.33;3.03;;;21.10;53.20;;;;;;5073335;28;20428;-68
2020/12/02 00:05:54;;;;;;;3.80;3.47;;;21.10;53.30;;;;;;5072869;28;20475;-68
2020/12/02 00:08:33;;;;;;;3.97;3.20;;;21.10;53.20;;;;;;5073266;28;20423;-68
2020/12/02 00:11:05;;;;;;;3.13;2.63;;;21.20;53.20;;;;;;5073343;28;20384;-68
2020/12/02 00:13:33;;;;;;;4.57;3.50;;;21.10;53.10;;;;;;5073274;28;20427;-68
2020/12/02 00:16:01;;;;;;;3.33;3.03;;;21.20;53.20;;;;;;5073169;28;20436;-69
2020/12/02 00:18:29;;;;;;;3.13;2.83;;;21.20;53.20;;;;;;5072909;28;20919;-69
2020/12/02 00:20:54;;;;;;;3.20;2.90;;;21.20;53.10;;;;;;5072899;28;20434;-68
2020/12/02 00:23:20;;;;;;;4.73;3.20;;;21.20;53.10;;;;;;5072709;28;20428;-68
2020/12/02 00:25:46;;;;;;;4.30;3.07;;;21.20;53.10;;;;;;5072690;28;20175;-69
2020/12/02 00:28:13;;;;;;;3.13;2.80;;;21.20;53.10;;;;;;5072503;28;20185;-68
2020/12/02 00:30:41;;;;;;;5.73;4.13;;;21.20;53.10;;;;;;5072857;28;20175;-68
2020/12/02 00:33:18;;;;;;;3.10;2.90;;;21.20;53.00;;;;;;5072887;28;20428;-68
2020/12/02 00:35:44;;;;;;;3.87;3.47;;;21.20;53.00;;;;;;5072768;28;20906;-68
2020/12/02 00:38:12;;;;;;;4.17;2.90;;;21.20;53.00;;;;;;5072741;28;20491;-68
2020/12/02 00:40:44;;;;;;;3.13;2.83;;;21.20;53.00;;;;;;5072744;28;20177;-68
2020/12/02 00:43:10;;;;;;;3.50;3.20;;;21.20;53.00;;;;;;5072769;28;20424;-68
2020/12/02 00:45:36;;;;;;;3.27;2.97;;;21.20;53.00;;;;;;5072687;28;20408;-68
2020/12/02 00:48:02;;;;;;;3.10;2.80;;;21.20;53.00;;;;;;5072940;28;20788;-68
2020/12/02 00:50:28;;;;;;;2.97;2.50;;;21.20;53.00;;;;;;5072615;28;20166;-68
2020/12/02 00:53:09;;;;;;;3.00;2.50;;;21.20;53.00;;;;;;5075638;28;20481;-68
2020/12/02 00:55:35;;;;;;;3.10;2.80;;;21.20;53.00;;;;;;5076461;28;20308;-68
2020/12/02 00:58:03;;;;;;;3.70;2.93;;;21.20;53.10;;;;;;5076815;28;20495;-68
2020/12/02 01:00:34;;;;;;;3.00;2.70;;;21.20;53.10;;;;;;5077547;28;20694;-68
2020/12/02 01:03:22;;;;;;;3.07;2.80;;;21.20;53.10;;;;;;5076429;28;20828;-68
2020/12/02 01:05:48;;;;;;;2.67;2.47;;;21.20;53.10;;;;;;5076392;28;20405;-69
2020/12/02 01:08:29;;;;;;;4.63;3.20;;;21.10;53.10;;;;;;5076365;28;20919;-68
2020/12/02 01:11:06;;;;;;;2.53;2.33;;;21.10;53.20;;;;;;5076514;28;20480;-68
2020/12/02 01:13:37;;;;;;;3.43;2.50;;;21.10;53.20;;;;;;5076205;28;20420;-68
2020/12/02 01:16:08;;;;;;;3.10;2.80;;;21.10;53.20;;;;;;5074816;28;20452;-68
2020/12/02 01:18:33;;;;;;;3.10;2.73;;;21.10;53.30;;;;;;5076636;28;20389;-68
2020/12/02 01:21:07;;;;;;;3.50;3.20;;;21.10;53.30;;;;;;5076099;28;20393;-68
2020/12/02 01:23:35;;;;;;;3.40;3.10;;;21.10;53.30;;;;;;5075694;28;20278;-69
2020/12/02 01:26:02;;;;;;;3.13;2.60;;;21.10;53.30;;;;;;5076530;28;20415;-69
2020/12/02 01:28:31;;;;;;;4.97;3.53;;;21.00;53.20;;;;;;5076231;28;20480;-68
2020/12/02 01:30:59;;;;;;;4.30;3.20;;;21.10;53.30;;;;;;5075808;28;20503;-68
2020/12/02 01:33:25;;;;;;;3.93;3.53;;;21.00;53.20;;;;;;5075790;28;20849;-69
2020/12/02 01:35:52;;;;;;;3.90;2.97;;;21.00;53.30;;;;;;5076023;28;20463;-69
2020/12/02 01:38:36;;;;;;;3.10;2.80;;;21.00;53.30;;;;;;5076039;28;20405;-68
2020/12/02 01:41:02;;;;;;;3.00;2.63;;;21.00;53.40;;;;;;5075869;28;20416;-68
2020/12/02 01:43:27;;;;;;;2.57;2.37;;;21.00;53.40;;;;;;5075832;28;20433;-68
2020/12/02 01:45:59;;;;;;;3.70;2.90;;;21.00;53.40;;;;;;5075671;28;20170;-68
2020/12/02 01:49:00;;;;;;;3.87;3.23;;;21.00;53.40;;;;;;5075924;28;20159;-68
2020/12/02 01:52:07;;;;;;;2.57;2.37;;;21.00;53.40;;;;;;5075884;28;20697;-68
2020/12/02 01:54:41;;;;;;;2.10;1.90;;;21.00;53.50;;;;;;5033426;28;22719;-68
2020/12/02 01:57:23;;;;;;;3.23;2.93;;;20.90;53.40;;;;;;5070850;28;20408;-68
2020/12/02 01:59:59;;;;;;;3.43;3.13;;;20.90;53.40;;;;;;5075410;28;20414;-68
2020/12/02 02:02:55;;;;;;;3.10;2.57;;;20.90;53.50;;;;;;5075395;28;20423;-69
2020/12/02 02:05:46;;;;;;;3.40;3.10;;;20.90;53.40;;;;;;5075454;28;20397;-67
2020/12/02 02:08:12;;;;;;;3.00;2.60;;;20.90;53.40;;;;;;5075565;28;20921;-68
2020/12/02 02:10:40;;;;;;;2.80;2.43;;;20.90;53.30;;;;;;5075178;28;20496;-69
2020/12/02 02:13:28;;;;;;;3.63;2.63;;;21.00;53.40;;;;;;5075063;28;20231;-68
2020/12/02 02:16:11;;;;;;;3.73;2.87;;;21.00;53.30;;;;;;5075161;28;20962;-68
2020/12/02 02:18:36;;;;;;;2.80;2.50;;;21.00;53.20;;;;;;5075317;28;20401;-68
2020/12/02 02:21:05;;;;;;;2.87;2.50;;;21.00;53.20;;;;;;5075121;28;20426;-68
2020/12/02 02:26:13;;;;;;;3.00;2.20;;;21.10;53.20;;;;;;5033058;28;20588;-66
2020/12/02 02:29:02;;;;;;;2.60;2.40;;;21.10;53.20;;;;;;5034875;28;20402;-67
2020/12/02 02:31:29;;;;;;;2.97;2.47;;;21.10;53.20;;;;;;5034221;28;20831;-67
2020/12/02 02:33:57;;;;;;;3.03;2.30;;;21.10;53.20;;;;;;5038280;28;20445;-66
2020/12/02 02:36:27;;;;;;;2.83;2.40;;;21.10;53.10;;;;;;5054819;28;20477;-67
2020/12/02 02:38:53;;;;;;;2.97;2.70;;;21.10;53.10;;;;;;5036657;28;20418;-67
2020/12/02 02:41:21;;;;;;;2.93;2.47;;;21.10;53.10;;;;;;5054752;28;20496;-67
2020/12/02 02:43:47;;;;;;;2.90;2.33;;;21.10;53.10;;;;;;5036488;28;20455;-68
2020/12/02 02:46:12;;;;;;;3.17;2.83;;;21.10;53.00;;;;;;5054494;28;20406;-68
2020/12/02 02:48:39;;;;;;;2.60;2.20;;;21.10;53.00;;;;;;5054447;28;20175;-68
2020/12/02 02:51:06;;;;;;;2.53;2.33;;;21.10;53.00;;;;;;5054602;28;20297;-68
2020/12/02 02:53:32;;;;;;;2.60;2.30;;;21.10;53.60;;;;;;5054270;28;20488;-68
2020/12/02 02:55:58;;;;;;;2.87;2.43;;;21.10;53.10;;;;;;5054435;28;20540;-68
2020/12/02 02:58:26;;;;;;;2.83;2.47;;;21.10;53.10;;;;;;5054241;28;20495;-68
2020/12/02 03:00:54;;;;;;;3.33;2.63;;;21.10;53.10;;;;;;5054282;28;20540;-67
2020/12/02 03:03:20;;;;;;;2.40;2.20;;;21.10;53.10;;;;;;5054065;28;20459;-68
2020/12/02 03:05:47;;;;;;;3.00;2.70;;;21.10;53.10;;;;;;5054056;28;20421;-68
2020/12/02 03:08:13;;;;;;;2.60;2.40;;;21.10;53.10;;;;;;5054055;28;20164;-68
2020/12/02 03:10:41;;;;;;;3.00;2.70;;;21.10;53.00;;;;;;5054010;28;20775;-68
2020/12/02 03:13:23;;;;;;;2.57;2.23;;;21.10;53.00;;;;;;5053974;28;20909;-68
2020/12/02 03:15:49;;;;;;;2.63;2.43;;;21.10;53.30;;;;;;5052839;28;20510;-68
2020/12/02 03:18:16;;;;;;;2.33;2.13;;;21.10;53.00;;;;;;5053860;28;20414;-68
2020/12/02 03:20:47;;;;;;;2.40;2.07;;;21.10;53.00;;;;;;5053803;28;20405;-67
2020/12/02 03:23:16;;;;;;;3.00;2.43;;;21.10;53.00;;;;;;5053795;28;20382;-68
2020/12/02 03:25:42;;;;;;;2.50;2.20;;;21.10;52.90;;;;;;5053565;28;20441;-69
2020/12/02 03:28:08;;;;;;;3.17;2.80;;;21.10;52.90;;;;;;5053682;28;20414;-68
2020/12/02 03:30:34;;;;;;;2.40;2.17;;;21.10;52.90;;;;;;5053626;28;20409;-68
2020/12/02 03:32:59;;;;;;;3.23;2.27;;;21.10;52.90;;;;;;5053590;28;20650;-68
2020/12/02 03:35:26;;;;;;;3.17;2.30;;;21.10;52.90;;;;;;5053430;28;20202;-69
2020/12/02 03:37:52;;;;;;;2.57;2.37;;;21.10;52.90;;;;;;5053530;28;20316;-68
2020/12/02 03:40:19;;;;;;;2.43;2.23;;;21.10;52.90;;;;;;5053724;28;20487;-68
2020/12/02 03:42:44;;;;;;;2.87;2.60;;;21.20;53.00;;;;;;5053408;28;20402;-68
2020/12/02 03:45:11;;;;;;;3.17;2.47;;;21.20;53.00;;;;;;5053306;28;20792;-68
2020/12/02 03:47:38;;;;;;;3.07;2.77;;;21.20;53.00;;;;;;5053383;28;20544;-69
2020/12/02 03:50:09;;;;;;;2.40;2.10;;;21.20;53.00;;;;;;5053290;28;20416;-69
2020/12/02 03:52:35;;;;;;;2.30;2.03;;;21.10;52.90;;;;;;5053325;28;20390;-68
2020/12/02 03:55:01;;;;;;;3.07;2.50;;;21.10;53.00;;;;;;5053107;28;20476;-68
2020/12/02 03:57:27;;;;;;;2.80;2.53;;;21.10;53.00;;;;;;5053160;28;20414;-68
2020/12/02 03:59:53;;;;;;;2.53;2.13;;;21.10;53.00;;;;;;5053255;28;20448;-68
2020/12/02 04:02:18;;;;;;;2.60;2.10;;;21.10;53.00;;;;;;5053100;28;20167;-68
2020/12/02 04:04:44;;;;;;;3.00;2.23;;;21.10;53.10;;;;;;5052906;28;20198;-68
2020/12/02 04:07:09;;;;;;;2.50;2.20;;;21.10;53.00;;;;;;5053136;28;20228;-68
2020/12/02 04:09:35;;;;;;;3.17;2.60;;;21.10;53.00;;;;;;5052962;28;20232;-67
2020/12/02 04:12:01;;;;;;;2.67;2.30;;;21.10;53.00;;;;;;5052994;28;20167;-68
2020/12/02 04:14:26;;;;;;;2.87;2.50;;;21.10;53.00;;;;;;5052821;28;20194;-68
2020/12/02 04:16:52;;;;;;;2.50;2.30;;;21.10;53.00;;;;;;5052940;28;20178;-67
2020/12/02 04:19:17;;;;;;;2.60;2.40;;;21.10;52.90;;;;;;5064990;23;20233;-68
2020/12/02 04:21:43;;;;;;;2.27;1.77;;;21.10;52.90;;;;;;5071275;28;20158;-69
2020/12/02 04:24:09;;;;;;;2.97;2.20;;;21.10;52.90;;;;;;5070903;28;20276;-67
2020/12/02 04:26:34;;;;;;;2.23;2.03;;;21.10;52.90;;;;;;5072607;28;20166;-68
2020/12/02 04:29:00;;;;;;;2.83;2.33;;;21.10;52.90;;;;;;5072930;28;20223;-68
2020/12/02 04:31:26;;;;;;;2.27;2.07;;;21.10;52.90;;;;;;5071628;28;20173;-68
2020/12/02 04:33:52;;;;;;;2.43;2.23;;;21.10;52.90;;;;;;5073036;28;20190;-68
2020/12/02 04:36:18;;;;;;;3.10;2.33;;;21.10;52.90;;;;;;5073067;28;20443;-68
2020/12/02 04:38:44;;;;;;;2.77;2.03;;;21.10;52.90;;;;;;5072769;28;20166;-68
2020/12/02 04:41:12;;;;;;;2.20;1.97;;;21.10;52.90;;;;;;5073012;28;20185;-68
2020/12/02 04:43:40;;;;;;;1.93;1.83;;;21.10;52.90;;;;;;5073059;28;20194;-68
2020/12/02 04:46:14;;;;;;;2.40;2.20;;;21.10;52.90;;;;;;5072919;28;20934;-67
2020/12/02 04:48:41;;;;;;;2.27;2.07;;;21.10;52.90;;;;;;5072968;28;20385;-68
2020/12/02 04:51:12;;;;;;;2.60;2.40;;;21.10;52.90;;;;;;5073836;28;20855;-68
2020/12/02 04:53:41;;;;;;;2.53;2.00;;;21.10;53.00;;;;;;5072852;28;20396;-68
2020/12/02 04:56:07;;;;;;;3.27;2.50;;;21.10;53.10;;;;;;5072822;28;20440;-67
2020/12/02 04:58:36;;;;;;;2.37;2.17;;;21.00;53.10;;;;;;5072794;28;20415;-67
2020/12/02 05:01:19;;;;;;;2.47;2.27;;;21.10;53.20;;;;;;5072593;28;20605;-66
2020/12/02 05:03:48;;;;;;;2.43;2.23;;;21.10;53.20;;;;;;5072502;28;20408;-67
2020/12/02 05:06:21;;;;;;;2.53;2.07;;;21.00;53.20;;;;;;5072579;28;20961;-67
2020/12/02 05:08:46;;;;;;;2.20;2.00;;;21.00;53.20;;;;;;5072564;28;20405;-67
2020/12/02 05:11:13;;;;;;;2.67;2.30;;;20.90;53.20;;;;;;5072773;28;20431;-67
2020/12/02 05:13:39;;;;;;;2.40;2.10;;;20.90;53.20;;;;;;5071155;28;20217;-67
2020/12/02 05:16:07;;;;;;;2.73;2.50;;;20.90;53.30;;;;;;5072336;28;20843;-67
2020/12/02 05:18:33;;;;;;;2.57;2.37;;;20.90;53.30;;;;;;5072341;28;20716;-68
2020/12/02 05:21:20;;;;;;;2.40;2.03;;;20.90;53.30;;;;;;5072384;28;20417;-68
2020/12/02 05:24:06;;;;;;;2.50;2.30;;;20.90;53.30;;;;;;5072335;28;20442;-68
2020/12/02 05:26:35;;;;;;;2.60;2.40;;;20.90;53.30;;;;;;5072285;28;20787;-67
2020/12/02 05:29:24;;;;;;;2.80;2.10;;;20.90;53.40;;;;;;5070961;28;20933;-68
2020/12/02 05:31:58;;;;;;;2.33;2.10;;;20.90;53.40;;;;;;5061507;28;20436;-67
2020/12/02 05:34:29;;;;;;;5.40;2.73;;;20.80;53.40;;;;;;5072242;28;20507;-68
2020/12/02 05:36:55;;;;;;;3.40;2.40;;;20.80;53.50;;;;;;5072571;28;20389;-65
2020/12/02 05:39:47;;;;;;;2.40;2.20;;;20.80;53.50;;;;;;5074403;28;20403;-67
2020/12/02 05:42:25;;;;;;;2.70;2.10;;;20.80;53.40;;;;;;5075737;28;20155;-67
2020/12/02 05:45:14;;;;;;;2.40;2.07;;;20.80;53.50;;;;;;5075906;28;20423;-68
2020/12/02 05:47:41;;;;;;;3.70;2.50;;;20.80;53.50;;;;;;5075682;28;20400;-67
2020/12/02 05:50:11;;;;;;;2.60;1.83;;;20.80;53.50;;;;;;5075607;28;20416;-67
2020/12/02 05:52:43;;;;;;;2.57;2.03;;;20.80;53.50;;;;;;5075576;28;20777;-68
2020/12/02 05:55:09;;;;;;;2.03;1.87;;;20.80;53.50;;;;;;5075333;28;20449;-68
2020/12/02 05:57:40;;;;;;;2.30;2.10;;;20.80;53.50;;;;;;5075472;28;20408;-68
2020/12/02 06:00:08;;;;;;;2.60;2.40;;;20.80;53.50;;;;;;5074161;28;20173;-67
2020/12/02 06:02:37;;;;;;;2.77;2.30;;;20.90;53.50;;;;;;5075612;28;20404;-68
2020/12/02 06:05:07;;;;;;;2.37;2.00;;;20.90;53.50;;;;;;5075247;28;20479;-67
2020/12/02 06:07:50;;;;;;;2.50;2.17;;;20.90;53.40;;;;;;5075250;28;20500;-67
2020/12/02 06:10:17;;;;;;;2.40;2.20;;;20.90;53.40;;;;;;5076117;28;20732;-66
2020/12/02 06:12:44;;;;;;;2.63;2.20;;;20.90;53.40;;;;;;5075410;28;20743;-67
2020/12/02 06:15:22;;;;;;;2.40;2.20;;;20.90;53.40;;;;;;5075079;28;21036;-67
2020/12/02 06:17:47;;;;;;;2.40;2.10;;;20.90;53.40;;;;;;5075368;28;20388;-67
2020/12/02 06:20:13;;;;;;;2.67;2.47;;;20.90;53.40;;;;;;5075697;28;20424;-64
2020/12/02 06:22:50;;;;;;;3.00;2.50;;;20.90;53.40;;;;;;5075026;28;20166;-66
2020/12/02 06:25:51;;;;;;;2.27;2.07;;;20.90;53.40;;;;;;5074960;28;20702;-67
2020/12/02 06:28:29;;;;;;;3.17;2.30;;;20.90;53.40;;;;;;5075050;28;20407;-67
2020/12/02 06:30:57;;;;;;;3.83;2.80;;;20.90;53.50;;;;;;5074846;28;20396;-67
2020/12/02 06:33:36;;;;;;;2.40;2.20;;;20.90;53.40;;;;;;5074686;28;20483;-66
2020/12/02 06:36:24;;;;;;;2.43;2.00;;;20.90;53.30;;;;;;5074583;28;20436;-67
2020/12/02 06:39:05;;;;;;;2.63;2.43;;;21.00;53.30;;;;;;5066601;28;20435;-65
2020/12/02 06:41:34;;;;;;;3.30;2.10;;;21.00;53.20;;;;;;5074871;28;20744;-67
2020/12/02 06:44:10;;;;;;;3.57;2.47;;;21.00;53.20;;;;;;5074664;28;20494;-66
2020/12/02 06:46:54;;;;;;;2.67;2.40;;;21.00;53.10;;;;;;5074778;28;20404;-66
2020/12/02 06:49:25;;;;;;;2.50;2.30;;;21.10;53.20;;;;;;5074269;28;20447;-67
2020/12/02 06:52:04;;;;;;;3.63;2.53;;;21.10;53.20;;;;;;5074409;28;20429;-67
2020/12/02 06:54:33;;;;;;;2.70;2.50;;;21.10;53.10;;;;;;5074568;28;20428;-65
2020/12/02 06:57:19;;;;;;;3.03;2.60;;;21.10;53.10;;;;;;5073301;28;20490;-66
2020/12/02 06:59:54;;;;;;;2.50;2.30;;;21.10;53.10;;;;;;5072860;28;20408;-66
2020/12/02 07:02:46;;;;;;;3.00;2.70;;;21.10;53.10;;;;;;5072928;28;20447;-67
2020/12/02 07:05:34;;;;;;;3.70;2.50;;;21.10;53.00;;;;;;5074123;28;20550;-67
2020/12/02 07:08:10;;;;;;;4.20;3.10;;;21.10;53.00;;;;;;5074385;28;20412;-67
2020/12/02 07:10:36;;;;;;;3.10;2.57;;;21.10;53.10;;;;;;5074373;28;20400;-68
2020/12/02 07:13:01;;;;;;;3.00;2.67;;;21.10;53.00;;;;;;5073937;28;20416;-68
2020/12/02 07:15:28;;;;;;;2.93;2.50;;;21.20;53.00;;;;;;5074028;28;20462;-68
2020/12/02 07:17:53;;;;;;;3.50;3.20;;;21.30;53.00;;;;;;5073873;28;20179;-68
2020/12/02 07:20:20;;;;;;;4.20;3.30;;;21.30;52.90;;;;;;5073676;28;20527;-68
2020/12/02 07:22:50;;;;;;;3.80;3.10;;;21.30;53.50;;;;;;5072932;28;20220;-68
2020/12/02 07:25:16;;;;;;;4.40;3.30;;;21.40;52.90;;;;;;5072692;28;20561;-68
2020/12/02 07:27:44;;;;;;;3.30;3.00;;;21.40;52.90;;;;;;5072863;28;20495;-66
2020/12/02 07:30:23;;;;;;;4.33;2.87;;;21.40;52.90;;;;;;5072909;28;20179;-67
2020/12/02 07:32:48;;;;;;;3.47;3.13;;;21.50;53.00;;;;;;5072409;28;20492;-68
2020/12/02 07:35:17;;;;;;;3.50;2.87;;;21.50;53.00;;;;;;5073020;28;20563;-66
2020/12/02 07:37:43;;;;;;;3.97;2.93;;;21.50;53.00;;;;;;5073849;28;20551;-68
2020/12/02 07:40:30;;;;;;;4.80;3.40;;;21.50;52.90;;;;;;5073641;28;20779;-67
2020/12/02 07:42:57;;;;;;;5.47;3.43;;;21.50;52.90;;;;;;5073874;28;20389;-67
2020/12/02 07:45:28;;;;;;;5.40;3.30;;;21.50;52.90;;;;;;5073360;28;20432;-67
2020/12/02 07:48:22;;;;;;;5.00;3.73;;;21.60;52.90;;;;;;5073361;28;20416;-67
2020/12/02 07:50:54;;;;;;;8.20;4.30;;;21.60;52.90;;;;;;5073303;28;20523;-68
2020/12/02 07:54:04;;;;;;;5.60;3.60;;;21.60;52.90;;;;;;5073281;28;20392;-67
2020/12/02 07:56:33;;;;;;;4.80;3.40;;;21.60;52.90;;;;;;5059834;28;20493;-68
2020/12/02 07:59:17;;;;;;;4.20;2.93;;;21.60;52.90;;;;;;5073195;28;20413;-68
2020/12/02 08:01:53;;;;;;;5.73;3.73;;;21.60;52.90;;;;;;5072977;28;20878;-68
2020/12/02 08:04:22;;;;;;;4.90;3.83;;;21.60;52.90;;;;;;5071864;28;20443;-67
2020/12/02 08:06:57;;;;;;;5.57;3.60;;;21.60;52.90;;;;;;5073146;28;20495;-67
2020/12/02 08:09:23;;;;;;;4.40;3.80;;;21.70;53.00;;;;;;5073393;28;20466;-67
2020/12/02 08:11:55;;;;;;;4.87;3.57;;;21.70;53.00;;;;;;5072968;28;20404;-67
2020/12/02 08:14:26;;;;;;;4.50;3.80;;;21.70;53.00;;;;;;5072984;28;20213;-68
2020/12/02 08:16:57;;;;;;;7.63;4.20;;;21.70;52.90;;;;;;5073290;28;20396;-69
2020/12/02 08:19:32;;;;;;;5.17;3.67;;;21.70;52.90;;;;;;5073146;28;20504;-68
2020/12/02 08:21:59;;;;;;;6.63;4.20;;;21.70;52.90;;;;;;5072975;28;20881;-68
2020/12/02 08:24:36;;;;;;;11.80;3.90;;;21.80;53.00;;;;;;5085000;22;20455;-71
2020/12/02 08:27:02;;;;;;;5.23;4.00;;;21.80;53.00;;;;;;5054327;28;20566;-71
2020/12/02 08:29:32;;;;;;;5.63;4.00;;;21.80;53.00;;;;;;5054408;28;20434;-71
2020/12/02 08:32:00;;;;;;;5.80;4.07;;;21.80;52.90;;;;;;5054167;28;20181;-71
2020/12/02 08:34:29;;;;;;;7.50;4.63;;;21.80;52.90;;;;;;5054221;28;21004;-71
2020/12/02 08:37:10;;;;;;;9.23;4.30;;;21.80;52.90;;;;;;5055573;28;20402;-71
2020/12/02 08:39:37;;;;;;;7.83;3.97;;;21.80;52.90;;;;;;5054701;28;20466;-71
2020/12/02 08:42:03;;;;;;;6.23;4.63;;;21.80;52.90;;;;;;5054549;28;20900;-71
2020/12/02 08:44:29;;;;;;;6.73;4.93;;;21.80;52.90;;;;;;5054597;28;20527;-71
2020/12/02 08:46:59;;;;;;;7.00;4.50;;;21.80;52.90;;;;;;5053495;28;20175;-72
2020/12/02 08:49:30;;;;;;;9.50;4.07;;;21.90;53.00;;;;;;5053289;28;20182;-72
2020/12/02 08:51:56;;;;;;;6.93;4.57;;;21.80;52.90;;;;;;5053207;28;20389;-73
2020/12/02 08:54:24;;;;;;;6.87;4.50;;;21.80;52.90;;;;;;5053383;28;20982;-73
2020/12/02 08:56:50;;;;;;;8.87;5.50;;;21.80;52.90;;;;;;5053185;28;20445;-72
2020/12/02 08:59:16;;;;;;;5.27;4.10;;;21.80;53.00;;;;;;5034317;28;20421;-72
2020/12/02 09:01:42;;;;;;;6.03;4.40;;;21.80;52.90;;;;;;5053204;28;20417;-72
2020/12/02 09:04:08;;;;;;;8.50;5.30;;;21.80;52.90;;;;;;5053107;28;20200;-72
2020/12/02 09:06:34;;;;;;;7.43;4.97;;;21.80;52.90;;;;;;5052605;28;20186;-72
2020/12/02 09:09:00;;;;;;;7.90;4.70;;;21.80;52.90;;;;;;5052533;28;20406;-71
2020/12/02 09:11:35;;;;;;;8.03;4.70;;;21.80;52.90;;;;;;5053095;28;20491;-72
2020/12/02 09:14:03;;;;;;;5.80;4.70;;;21.80;52.90;;;;;;5055961;28;20458;-72
2020/12/02 09:16:37;;;;;;;6.60;5.00;;;21.80;53.00;;;;;;5056567;28;20449;-72
2020/12/02 09:19:05;;;;;;;5.70;4.30;;;21.90;53.10;;;;;;5056819;28;20991;-72
2020/12/02 09:21:31;;;;;;;8.30;5.13;;;21.80;53.00;;;;;;5056762;28;20406;-69
2020/12/02 09:23:58;;;;;;;8.13;5.17;;;21.80;53.00;;;;;;5057125;28;20408;-73
2020/12/02 09:26:28;;;;;;;9.50;4.90;;;21.80;53.00;;;;;;5057425;28;20946;-71
2020/12/02 09:28:55;;;;;;;7.30;4.33;;;21.80;53.00;;;;;;5056374;28;20504;-72
2020/12/02 09:31:22;;;;;;;7.37;5.50;;;21.80;53.00;;;;;;5056252;28;20448;-72
2020/12/02 09:33:49;;;;;;;5.30;3.87;;;21.80;53.00;;;;;;5056062;28;20405;-72
2020/12/02 09:36:17;;;;;;;6.53;4.53;;;21.80;53.00;;;;;;5055985;28;20452;-72
2020/12/02 09:38:45;;;;;;;6.87;4.43;;;21.80;53.00;;;;;;5038079;28;20429;-72
2020/12/02 09:41:19;;;;;;;6.27;4.47;;;21.80;53.00;;;;;;5055817;28;20904;-73
2020/12/02 09:44:18;;;;;;;6.20;4.53;;;21.80;53.00;;;;;;5056197;28;20396;-72
2020/12/02 09:47:06;;;;;;;9.20;4.67;;;21.90;53.10;;;;;;5055932;28;20428;-71
2020/12/02 09:49:33;;;;;;;6.73;4.33;;;21.80;53.00;;;;;;5055721;28;20432;-72
2020/12/02 09:52:12;;;;;;;6.73;4.20;;;21.80;53.00;;;;;;5055770;28;20402;-73
2020/12/02 09:54:46;;;;;;;5.50;4.27;;;21.80;53.00;;;;;;5056180;28;20494;-72
2020/12/02 09:57:15;;;;;;;7.73;4.30;;;21.80;53.10;;;;;;5055660;28;20428;-72
2020/12/02 09:59:41;;;;;;;7.30;4.13;;;21.80;53.00;;;;;;5056212;28;20410;-71
2020/12/02 10:02:22;;;;;;;5.80;4.57;;;21.80;53.10;;;;;;5056064;28;20402;-72
2020/12/02 10:05:05;;;;;;;4.33;3.73;;;21.80;53.00;;;;;;5055391;28;20437;-72
2020/12/02 10:08:11;;;;;;;4.17;3.50;;;21.80;53.00;;;;;;5056176;28;20382;-73
2020/12/02 10:10:42;;;;;;;5.87;3.77;;;21.80;53.00;;;;;;5041523;28;20385;-72
2020/12/02 10:13:38;;;;;;;5.53;3.80;;;21.80;53.10;;;;;;5055555;28;20447;-72
2020/12/02 10:16:20;;;;;;;5.63;4.07;;;21.80;53.00;;;;;;5055557;28;20963;-71
2020/12/02 10:18:56;;;;;;;4.70;3.90;;;21.80;53.10;;;;;;5055877;28;20386;-72
2020/12/02 10:21:53;;;;;;;5.57;3.80;;;21.80;53.10;;;;;;5055651;28;20745;-72
2020/12/02 10:24:27;;;;;;;4.97;4.07;;;21.80;53.10;;;;;;5023733;28;20465;-72
2020/12/02 10:27:14;;;;;;;4.10;3.17;;;21.80;53.10;;;;;;5055531;28;20455;-72
2020/12/02 10:29:52;;;;;;;5.60;3.80;;;21.80;53.10;;;;;;5055791;28;20397;-72
2020/12/02 10:32:53;;;;;;;6.63;4.60;;;21.80;53.10;;;;;;5055443;28;20880;-73
2020/12/02 10:35:20;;;;;;;4.50;3.53;;;21.80;53.10;;;;;;5055065;28;20449;-72
2020/12/02 10:37:48;;;;;;;6.93;4.43;;;21.80;53.10;;;;;;5055386;28;20413;-73
2020/12/02 10:40:15;;;;;;;5.80;3.70;;;21.80;53.10;;;;;;5055016;28;20401;-72
2020/12/02 10:43:10;;;;;;;5.60;3.87;;;21.80;53.10;;;;;;5055130;28;20409;-72
2020/12/02 10:45:35;;;;;;;6.67;4.20;;;21.80;53.10;;;;;;5054891;28;20426;-72
2020/12/02 10:48:21;;;;;;;6.83;3.70;;;21.80;53.10;;;;;;5054723;28;20402;-72
2020/12/02 10:50:47;;;;;;;4.77;4.03;;;21.80;53.10;;;;;;5055046;28;20159;-72
2020/12/02 10:53:17;;;;;;;6.07;4.30;;;21.80;53.10;;;;;;5054670;28;20771;-72
2020/12/02 10:55:42;;;;;;;5.13;4.40;;;21.80;53.10;;;;;;5054494;28;20445;-72
2020/12/02 10:58:18;;;;;;;7.37;4.17;;;21.80;53.10;;;;;;5054497;28;20460;-72
2020/12/02 11:00:48;;;;;;;8.10;5.07;;;21.80;53.10;;;;;;5054576;28;20167;-71
2020/12/02 11:03:18;;;;;;;6.07;3.87;;;21.90;53.20;;;;;;5054961;28;20428;-72
2020/12/02 11:06:11;;;;;;;6.40;4.60;;;21.80;53.70;;;;;;5054444;28;20516;-72
2020/12/02 11:09:16;;;;;;;9.77;4.83;;;21.90;53.20;;;;;;5025945;28;20967;-72
2020/12/02 11:12:02;;;;;;;6.13;4.43;;;21.90;53.20;;;;;;5054537;28;20425;-72
2020/12/02 11:15:20;;;;;;;7.23;4.73;;;21.80;53.10;;;;;;5054827;28;20457;-72
2020/12/02 11:18:04;;;;;;;5.20;3.87;;;21.90;53.20;;;;;;4973278;28;20460;-72
2020/12/02 11:20:56;;;;;;;4.80;3.87;;;21.80;53.20;;;;;;5047361;28;20448;-72
2020/12/02 11:24:02;;;;;;;5.33;3.83;;;21.90;53.20;;;;;;5054166;28;20406;-72
2020/12/02 11:26:31;;;;;;;5.90;4.07;;;21.90;53.30;;;;;;5039858;28;20433;-72
2020/12/02 11:28:59;;;;;;;6.20;3.80;;;21.80;53.20;;;;;;5054066;28;20409;-71
2020/12/02 11:31:39;;;;;;;5.40;3.80;;;21.80;53.20;;;;;;5054116;28;20483;-72
2020/12/02 11:34:20;;;;;;;6.00;4.43;;;21.90;53.20;;;;;;5053746;28;20429;-72
2020/12/02 11:37:07;;;;;;;4.90;3.87;;;21.90;53.20;;;;;;5053179;28;20570;-71
2020/12/02 11:39:36;;;;;;;5.70;3.97;;;21.80;53.10;;;;;;5054495;28;20421;-71
2020/12/02 11:42:16;;;;;;;7.30;4.13;;;21.90;53.20;;;;;;5053728;28;20932;-71
2020/12/02 11:45:13;;;;;;;4.90;3.80;;;21.80;53.10;;;;;;5053609;28;20414;-71
2020/12/02 11:48:22;;;;;;;4.93;4.13;;;21.90;53.20;;;;;;5053717;28;20405;-72
2020/12/02 11:51:19;;;;;;;6.03;3.90;;;21.90;53.20;;;;;;5053688;28;20742;-72
2020/12/02 11:53:49;;;;;;;5.00;3.83;;;21.80;53.10;;;;;;5053672;28;20410;-72
2020/12/02 11:56:23;;;;;;;5.10;3.80;;;21.80;53.20;;;;;;5053757;28;20460;-72
2020/12/02 11:59:16;;;;;;;5.87;4.03;;;21.80;53.20;;;;;;5053864;28;20386;-72
2020/12/02 12:01:49;;;;;;;5.33;3.60;;;21.80;53.10;;;;;;5053846;28;20397;-72
2020/12/02 12:04:26;;;;;;;5.20;3.53;;;21.90;53.20;;;;;;5053396;28;20409;-71
2020/12/02 12:06:54;;;;;;;5.30;3.83;;;21.90;53.30;;;;;;5053133;28;20389;-71
2020/12/02 12:09:53;;;;;;;6.90;4.67;;;21.90;53.30;;;;;;5053671;28;20409;-72
2020/12/02 12:12:55;;;;;;;5.47;3.93;;;21.90;53.20;;;;;;5053221;28;20394;-71
2020/12/02 12:15:33;;;;;;;6.00;4.70;;;21.80;53.20;;;;;;5035015;28;21025;-72
2020/12/02 12:18:12;;;;;;;5.83;4.10;;;21.80;53.30;;;;;;5053295;28;20539;-72
2020/12/02 12:20:42;;;;;;;7.60;3.90;;;21.80;53.30;;;;;;5053072;28;20390;-71
2020/12/02 12:23:24;;;;;;;4.70;3.40;;;21.80;53.30;;;;;;5052976;28;20405;-72
2020/12/02 12:25:51;;;;;;;5.67;3.90;;;21.80;53.30;;;;;;5052849;28;20448;-72
2020/12/02 12:28:26;;;;;;;5.20;4.13;;;21.70;53.20;;;;;;5052825;28;20417;-72
2020/12/02 12:30:57;;;;;;;4.63;3.47;;;21.80;53.30;;;;;;5053026;28;20881;-72
2020/12/02 12:33:32;;;;;;;5.83;3.73;;;21.70;53.20;;;;;;5053195;28;20469;-71
2020/12/02 12:36:02;;;;;;;4.07;3.23;;;21.80;53.30;;;;;;5054275;28;20458;-68
2020/12/02 12:38:47;;;;;;;6.77;3.77;;;21.80;53.30;;;;;;5053990;28;20420;-68
2020/12/02 12:41:25;;;;;;;4.10;2.97;;;21.70;53.20;;;;;;5053720;28;20468;-68
2020/12/02 12:44:21;;;;;;;5.87;3.90;;;21.80;53.30;;;;;;5053638;28;20386;-68
2020/12/02 12:47:02;;;;;;;5.70;3.30;;;21.80;53.30;;;;;;5053785;28;20398;-68
2020/12/02 12:49:30;;;;;;;5.00;3.43;;;21.70;53.20;;;;;;5057654;28;20510;-68
2020/12/02 12:51:58;;;;;;;4.60;4.10;;;21.70;53.20;;;;;;5057568;28;20928;-68
2020/12/02 12:54:24;;;;;;;4.50;3.97;;;21.70;53.20;;;;;;5057399;28;21053;-68
2020/12/02 12:56:52;;;;;;;7.03;4.47;;;21.70;53.20;;;;;;5057246;28;20536;-68
2020/12/02 12:59:19;;;;;;;6.03;4.00;;;21.70;53.30;;;;;;5057149;28;20167;-68
2020/12/02 13:01:47;;;;;;;5.07;3.53;;;21.70;53.30;;;;;;5057394;28;20536;-68
2020/12/02 13:04:16;;;;;;;5.73;3.73;;;21.70;53.30;;;;;;5074903;23;20529;-68
2020/12/02 13:07:14;;;;;;;4.30;3.37;;;21.70;53.90;;;;;;5077227;28;20412;-68
2020/12/02 13:09:39;;;;;;;5.47;3.70;;;21.60;53.30;;;;;;5076198;28;20399;-68
2020/12/02 13:12:18;;;;;;;4.87;3.50;;;21.60;53.30;;;;;;5076888;28;20396;-68
2020/12/02 13:14:44;;;;;;;4.83;3.23;;;21.60;53.40;;;;;;5076753;28;20269;-66
2020/12/02 13:17:20;;;;;;;4.70;4.30;;;21.60;53.40;;;;;;5076986;28;20883;-68
2020/12/02 13:20:24;;;;;;;4.17;3.77;;;21.60;53.40;;;;;;5077385;28;20146;-68
2020/12/02 13:22:55;;;;;;;6.30;3.73;;;21.60;53.40;;;;;;5014888;28;20944;-68